Accueil
METAR-TAF:

METAR-TAF

Aéroports :

Vladivostok, Russie

Aéroport international de Vladivostok

latitude: 43-07N, longitude: 131-56E, altitude: 184 m

Observation

Le bulletin a été fait il y a 30 minutes, à 23:30 UTC
Vent 2 kt de direction variable
Température 11°C
Humidité 66%
Pression 1010 hPa
Visibilité: 9000 m

METAR: UHWW 202330Z VRB01MPS 9000 NSC 11/05 Q1010 R25L/0///70 NOSIG RMK QFE756

Heure: 10:00 (00:00 UTC)

Prévision

Le bulletin a été fait il y a 1 heure et 0 minutes, à 23:00 UTC
Prévision valable du 21 à 00 UTC au 21 à 24 UTC
Vent 6 kt de nord/nord-ouest
Visibilité 10 km ou plus
Temporairement
du 21 à 00 UTC au 21 à 09 UTC
Vent 19 kt de nord/nord-ouest
Nuages fragmentés à une hauteur de 2000 ft

TAF: UHWW 202300Z 2100/2124 33003MPS 9999 NSC TEMPO 2100/2109 34010MPS BKN020

Observations et prévisions météorologiques de plus de 4000 aéroports (messages METAR et TAF).

Les stations disponibles sont représentées par des disques jaunes et rouges sur la carte.

Passer la souris dessus pour voir le nom de la station.

Cliquer dessus pour voir les observations et prévisions météorologiques.

Pour changer de carte: cliquez sur les boutons verts avec une croix noire pour zoomer, sur le bouton vert avec un tiret pour effectuer un zoom arrière, ou sur les flèches vertes pour les cartes adjacentes.


METAR-TAF: